Nos Reves — PB9455 — position and weather

sailwx.info

Track history (hours):
 
Tides and Currents Weather Stations Pressure Air Temp Water Temp Dewpoint Dewpoint Depression Visibility Wind Speed Wind Dir Waves Ship Positions

Nos Reves

Last reported at 2015-Aug-27 10:10 UTC. Time now 2015-Aug-30 09:52 UTC.
Position N 43°04' E 009°51'.

Length 15 m.

Type: Sailing vessel. MMSI: 244650262.

Date/timePositionNaut miles runAvg speedWind from/ knotsBaromVisibWave heightAir tempDewpointWater temp
2015-Aug-27 10:10N 43°04' E 009°51'71 5.2
2015-Aug-26 20:33N 43°16' E 008°15'45 4.9
2015-Aug-26 11:17N 43°22' E 007°14'5 4.2
2015-Aug-26 10:05N 43°26' E 007°11'3 5.0
2015-Aug-26 09:33N 43°29' E 007°09'5 4.9
2015-Aug-26 08:32N 43°33' E 007°05'1 0.9
2015-Aug-26 07:29N 43°34' E 007°05'0 0.0
2015-Aug-26 06:29N 43°34' E 007°05'0 0.0
2015-Aug-26 05:23N 43°34' E 007°05'0 0.0
2015-Aug-26 04:29N 43°34' E 007°05'0 0.0
2015-Aug-26 03:29N 43°34' E 007°05'0 0.0
2015-Aug-26 02:29N 43°34' E 007°05'0 0.0
2015-Aug-26 01:17N 43°34' E 007°05'0 0.0
2015-Aug-26 00:29N 43°34' E 007°05'0 0.0
2015-Aug-25 23:29N 43°34' E 007°05'0 0.0
2015-Aug-25 22:29N 43°34' E 007°05'0 0.0
2015-Aug-25 21:29N 43°34' E 007°05'0 0.0
2015-Aug-25 20:29N 43°34' E 007°05'0 0.0
2015-Aug-25 19:29N 43°34' E 007°05'0 0.0
2015-Aug-25 18:29N 43°34' E 007°05'0 0.0
2015-Aug-25 17:29N 43°34' E 007°05'0 0.0
2015-Aug-25 16:29N 43°34' E 007°05'0 0.0
2015-Aug-25 15:17N 43°34' E 007°05'0 0.0
2015-Aug-25 14:29N 43°34' E 007°05'0 0.0
2015-Aug-25 13:23N 43°34' E 007°05'0 0.0
2015-Aug-25 12:29N 43°34' E 007°05'0 0.0
2015-Aug-25 11:29N 43°34' E 007°05'0 0.0
2015-Aug-25 09:23N 43°34' E 007°05'0 0.0
2015-Aug-25 08:29N 43°34' E 007°05'0 0.0
2015-Aug-25 07:29N 43°34' E 007°05'0 0.0
2015-Aug-25 06:29N 43°34' E 007°05'0 0.0
2015-Aug-25 05:29N 43°34' E 007°05'0 0.0
2015-Aug-25 04:29N 43°34' E 007°05'0 0.0
2015-Aug-25 03:23N 43°34' E 007°05'0 0.0
2015-Aug-25 02:23N 43°34' E 007°05'0 0.0
2015-Aug-25 01:23N 43°34' E 007°05'0 0.0
2015-Aug-25 00:29N 43°34' E 007°05'0 0.0
2015-Aug-24 23:29N 43°34' E 007°05'0 0.0
2015-Aug-24 22:29N 43°34' E 007°05'0 0.0
2015-Aug-24 21:29N 43°34' E 007°05'0 0.0
2015-Aug-24 20:33N 43°34' E 007°05'0 0.0
2015-Aug-24 19:21N 43°34' E 007°05'0 0.0
2015-Aug-24 18:33N 43°34' E 007°05'0 0.0
2015-Aug-24 17:30N 43°34' E 007°05'0 0.0
2015-Aug-24 14:30N 43°34' E 007°05'0 0.0
2015-Aug-24 13:30N 43°34' E 007°05'0 0.0
2015-Aug-24 12:24N 43°34' E 007°05'0 0.0
2015-Aug-24 11:30N 43°34' E 007°05'0 0.0
2015-Aug-24 10:30N 43°34' E 007°05'0 0.0
2015-Aug-24 07:30N 43°34' E 007°05'0 0.0
2015-Aug-24 06:29N 43°34' E 007°05'0 0.0
2015-Aug-24 05:17N 43°34' E 007°05'0 0.0
2015-Aug-24 04:29N 43°34' E 007°05'0 0.0
2015-Aug-24 03:29N 43°34' E 007°05'0 0.0
2015-Aug-24 02:23N 43°34' E 007°05'0 0.0
2015-Aug-24 01:23N 43°34' E 007°05'0 0.0
2015-Aug-24 00:28N 43°34' E 007°05'0 0.0
2015-Aug-23 23:22N 43°34' E 007°05'0 0.0
2015-Aug-23 22:04N 43°34' E 007°05'0 0.0
2015-Aug-23 21:22N 43°34' E 007°05'0 0.0
2015-Aug-23 20:22N 43°34' E 007°05'0 0.0
2015-Aug-23 19:28N 43°34' E 007°05'0 0.0
2015-Aug-23 18:28N 43°34' E 007°05'0 0.0
2015-Aug-23 16:21N 43°34' E 007°05'0 0.0
2015-Aug-23 14:33N 43°34' E 007°05'0 0.0
2015-Aug-23 13:33N 43°34' E 007°05'0 0.0
2015-Aug-23 12:27N 43°34' E 007°05'0 0.0
2015-Aug-23 11:33N 43°34' E 007°05'0 0.0
2015-Aug-23 10:27N 43°34' E 007°05'0 0.0
2015-Aug-23 09:26N 43°34' E 007°05'0 0.0
2015-Aug-23 08:32N 43°34' E 007°05'0 0.0
2015-Aug-23 07:21N 43°34' E 007°05'0 0.0
2015-Aug-23 06:33N 43°34' E 007°05'0 0.0
2015-Aug-23 05:33N 43°34' E 007°05'0 0.0
2015-Aug-23 04:27N 43°34' E 007°05'0 0.0
2015-Aug-23 03:33N 43°34' E 007°05'0 0.0
2015-Aug-23 02:33N 43°34' E 007°05'0 0.0
2015-Aug-23 01:21N 43°34' E 007°05'0 0.0
2015-Aug-23 00:33N 43°34' E 007°05'0 0.0
2015-Aug-22 23:33N 43°34' E 007°05'0 0.0
2015-Aug-22 22:21N 43°34' E 007°05'0 0.0
2015-Aug-22 21:33N 43°34' E 007°05'0 0.0
2015-Aug-22 20:21N 43°34' E 007°05'0 0.0
2015-Aug-22 19:33N 43°34' E 007°05'0 0.0
2015-Aug-22 18:27N 43°34' E 007°05'0 0.0
2015-Aug-22 17:33N 43°34' E 007°05'0 0.0
2015-Aug-22 16:33N 43°34' E 007°05'0 0.0
2015-Aug-22 15:13N 43°34' E 007°05'0 0.0
2015-Aug-22 13:25N 43°34' E 007°05'0 0.0
2015-Aug-22 10:29N 43°34' E 007°05'0 0.0
2015-Aug-22 07:11N 43°34' E 007°05'0 0.0
2015-Aug-22 06:05N 43°34' E 007°05'0 0.0
2015-Aug-22 04:29N 43°34' E 007°05'0 0.0
2015-Aug-22 03:29N 43°34' E 007°05'0 0.0
2015-Aug-22 02:29N 43°34' E 007°05'0 0.0
2015-Aug-22 01:29N 43°34' E 007°05'0 0.0
2015-Aug-22 00:29N 43°34' E 007°05'0 0.0
2015-Aug-21 23:29N 43°34' E 007°05'0 0.0
2015-Aug-21 22:29N 43°34' E 007°05'0 0.0
2015-Aug-21 21:29N 43°34' E 007°05'0 0.0
2015-Aug-21 20:31N 43°34' E 007°05'0 0.0
2015-Aug-21 16:31N 43°34' E 007°05'0 0.0
2015-Aug-21 15:31N 43°34' E 007°05'0 0.0
2015-Aug-21 14:31N 43°34' E 007°05'0 0.0
2015-Aug-21 13:07N 43°34' E 007°05'0 0.0
2015-Aug-21 12:31N 43°34' E 007°05'0 0.0
2015-Aug-21 11:31N 43°34' E 007°05'0 0.0
2015-Aug-21 10:19N 43°34' E 007°05'0 0.0
2015-Aug-21 09:31N 43°34' E 007°05'0 0.0
2015-Aug-21 08:13N 43°34' E 007°05'0 0.0
2015-Aug-21 07:31N 43°34' E 007°05'0 0.0
2015-Aug-21 06:31N 43°34' E 007°05'0 0.0
2015-Aug-21 04:19N 43°34' E 007°05'0 0.0
2015-Aug-20 23:31N 43°34' E 007°05'0 0.0
2015-Aug-20 22:31N 43°34' E 007°05'0 0.0
2015-Aug-20 21:31N 43°34' E 007°05'0 0.0
2015-Aug-20 20:31N 43°34' E 007°05'0 0.0
2015-Aug-20 18:31N 43°34' E 007°05'0 0.0
2015-Aug-20 16:29N 43°34' E 007°05'0 0.0
2015-Aug-20 15:29N 43°34' E 007°05'0 0.0
2015-Aug-20 14:32N 43°34' E 007°05'0 0.0
2015-Aug-20 13:32N 43°34' E 007°05'0 0.0
2015-Aug-20 12:14N 43°34' E 007°05'0 0.0
2015-Aug-20 11:32N 43°34' E 007°05'0 0.0
2015-Aug-20 10:26N 43°34' E 007°05'0 0.0
2015-Aug-20 09:32N 43°34' E 007°05'0 0.0
2015-Aug-20 08:26N 43°34' E 007°05'0 0.0
2015-Aug-20 07:32N 43°34' E 007°05'0 0.0
2015-Aug-20 06:10N 43°34' E 007°05'0 0.0
2015-Aug-20 05:10N 43°34' E 007°05'0 0.0
2015-Aug-20 04:28N 43°34' E 007°05'0 0.0
2015-Aug-20 03:28N 43°34' E 007°05'0 0.0
2015-Aug-20 02:22N 43°34' E 007°05'0 0.0
2015-Aug-20 01:22N 43°34' E 007°05'0 0.0
2015-Aug-20 00:28N 43°34' E 007°05'0 0.0
2015-Aug-19 23:28N 43°34' E 007°05'0 0.0
2015-Aug-19 22:28N 43°34' E 007°05'0 0.0
2015-Aug-19 21:28N 43°34' E 007°05'0 0.0
2015-Aug-19 19:28N 43°34' E 007°05'0 0.0
2015-Aug-19 18:28N 43°34' E 007°05'0 0.0
2015-Aug-19 17:28N 43°34' E 007°05'0 0.0
2015-Aug-19 16:28N 43°34' E 007°05'0 0.0
2015-Aug-19 15:28N 43°34' E 007°05'0 0.0
2015-Aug-19 14:28N 43°34' E 007°05'0 0.0
2015-Aug-18 07:29N 43°34' E 007°05'0 0.0
2015-Aug-17 14:23N 43°34' E 007°05'0 0.0
2015-Aug-17 13:23N 43°34' E 007°05'0 0.0
2015-Aug-17 12:11N 43°34' E 007°05'0 0.0
2015-Aug-17 10:28N 43°34' E 007°05'  
Track history (hours):
 
Tides and Currents Weather Stations Pressure Air Temp Water Temp Dewpoint Dewpoint Depression Visibility Wind Speed Wind Dir Waves Ship Positions

Nos Reves

Last reported at 2015-Aug-27 10:10 UTC. Time now 2015-Aug-30 09:52 UTC.
Position N 43°04' E 009°51'.

Length 15 m.

Type: Sailing vessel. MMSI: 244650262.

Date/timePositionNaut miles runAvg speedWind from/ knotsBaromVisibWave heightAir tempDewpointWater temp
2015-Aug-27 10:10N 43°04' E 009°51'71 5.2
2015-Aug-26 20:33N 43°16' E 008°15'45 4.9
2015-Aug-26 11:17N 43°22' E 007°14'5 4.2
2015-Aug-26 10:05N 43°26' E 007°11'3 5.0
2015-Aug-26 09:33N 43°29' E 007°09'5 4.9
2015-Aug-26 08:32N 43°33' E 007°05'1 0.9
2015-Aug-26 07:29N 43°34' E 007°05'0 0.0
2015-Aug-26 06:29N 43°34' E 007°05'0 0.0
2015-Aug-26 05:23N 43°34' E 007°05'0 0.0
2015-Aug-26 04:29N 43°34' E 007°05'0 0.0
2015-Aug-26 03:29N 43°34' E 007°05'0 0.0
2015-Aug-26 02:29N 43°34' E 007°05'0 0.0
2015-Aug-26 01:17N 43°34' E 007°05'0 0.0
2015-Aug-26 00:29N 43°34' E 007°05'0 0.0
2015-Aug-25 23:29N 43°34' E 007°05'0 0.0
2015-Aug-25 22:29N 43°34' E 007°05'0 0.0
2015-Aug-25 21:29N 43°34' E 007°05'0 0.0
2015-Aug-25 20:29N 43°34' E 007°05'0 0.0
2015-Aug-25 19:29N 43°34' E 007°05'0 0.0
2015-Aug-25 18:29N 43°34' E 007°05'0 0.0
2015-Aug-25 17:29N 43°34' E 007°05'0 0.0
2015-Aug-25 16:29N 43°34' E 007°05'0 0.0
2015-Aug-25 15:17N 43°34' E 007°05'0 0.0
2015-Aug-25 14:29N 43°34' E 007°05'0 0.0
2015-Aug-25 13:23N 43°34' E 007°05'0 0.0
2015-Aug-25 12:29N 43°34' E 007°05'0 0.0
2015-Aug-25 11:29N 43°34' E 007°05'0 0.0
2015-Aug-25 09:23N 43°34' E 007°05'0 0.0
2015-Aug-25 08:29N 43°34' E 007°05'0 0.0
2015-Aug-25 07:29N 43°34' E 007°05'0 0.0
2015-Aug-25 06:29N 43°34' E 007°05'0 0.0
2015-Aug-25 05:29N 43°34' E 007°05'0 0.0
2015-Aug-25 04:29N 43°34' E 007°05'0 0.0
2015-Aug-25 03:23N 43°34' E 007°05'0 0.0
2015-Aug-25 02:23N 43°34' E 007°05'0 0.0
2015-Aug-25 01:23N 43°34' E 007°05'0 0.0
2015-Aug-25 00:29N 43°34' E 007°05'0 0.0
2015-Aug-24 23:29N 43°34' E 007°05'0 0.0
2015-Aug-24 22:29N 43°34' E 007°05'0 0.0
2015-Aug-24 21:29N 43°34' E 007°05'0 0.0
2015-Aug-24 20:33N 43°34' E 007°05'0 0.0
2015-Aug-24 19:21N 43°34' E 007°05'0 0.0
2015-Aug-24 18:33N 43°34' E 007°05'0 0.0
2015-Aug-24 17:30N 43°34' E 007°05'0 0.0
2015-Aug-24 14:30N 43°34' E 007°05'0 0.0
2015-Aug-24 13:30N 43°34' E 007°05'0 0.0
2015-Aug-24 12:24N 43°34' E 007°05'0 0.0
2015-Aug-24 11:30N 43°34' E 007°05'0 0.0
2015-Aug-24 10:30N 43°34' E 007°05'0 0.0
2015-Aug-24 07:30N 43°34' E 007°05'0 0.0
2015-Aug-24 06:29N 43°34' E 007°05'0 0.0
2015-Aug-24 05:17N 43°34' E 007°05'0 0.0
2015-Aug-24 04:29N 43°34' E 007°05'0 0.0
2015-Aug-24 03:29N 43°34' E 007°05'0 0.0
2015-Aug-24 02:23N 43°34' E 007°05'0 0.0
2015-Aug-24 01:23N 43°34' E 007°05'0 0.0
2015-Aug-24 00:28N 43°34' E 007°05'0 0.0
2015-Aug-23 23:22N 43°34' E 007°05'0 0.0
2015-Aug-23 22:04N 43°34' E 007°05'0 0.0
2015-Aug-23 21:22N 43°34' E 007°05'0 0.0
2015-Aug-23 20:22N 43°34' E 007°05'0 0.0
2015-Aug-23 19:28N 43°34' E 007°05'0 0.0
2015-Aug-23 18:28N 43°34' E 007°05'0 0.0
2015-Aug-23 16:21N 43°34' E 007°05'0 0.0
2015-Aug-23 14:33N 43°34' E 007°05'0 0.0
2015-Aug-23 13:33N 43°34' E 007°05'0 0.0
2015-Aug-23 12:27N 43°34' E 007°05'0 0.0
2015-Aug-23 11:33N 43°34' E 007°05'0 0.0
2015-Aug-23 10:27N 43°34' E 007°05'0 0.0
2015-Aug-23 09:26N 43°34' E 007°05'0 0.0
2015-Aug-23 08:32N 43°34' E 007°05'0 0.0
2015-Aug-23 07:21N 43°34' E 007°05'0 0.0
2015-Aug-23 06:33N 43°34' E 007°05'0 0.0
2015-Aug-23 05:33N 43°34' E 007°05'0 0.0
2015-Aug-23 04:27N 43°34' E 007°05'0 0.0
2015-Aug-23 03:33N 43°34' E 007°05'0 0.0
2015-Aug-23 02:33N 43°34' E 007°05'0 0.0
2015-Aug-23 01:21N 43°34' E 007°05'0 0.0
2015-Aug-23 00:33N 43°34' E 007°05'0 0.0
2015-Aug-22 23:33N 43°34' E 007°05'0 0.0
2015-Aug-22 22:21N 43°34' E 007°05'0 0.0
2015-Aug-22 21:33N 43°34' E 007°05'0 0.0
2015-Aug-22 20:21N 43°34' E 007°05'0 0.0
2015-Aug-22 19:33N 43°34' E 007°05'0 0.0
2015-Aug-22 18:27N 43°34' E 007°05'0 0.0
2015-Aug-22 17:33N 43°34' E 007°05'0 0.0
2015-Aug-22 16:33N 43°34' E 007°05'0 0.0
2015-Aug-22 15:13N 43°34' E 007°05'0 0.0
2015-Aug-22 13:25N 43°34' E 007°05'0 0.0
2015-Aug-22 10:29N 43°34' E 007°05'0 0.0
2015-Aug-22 07:11N 43°34' E 007°05'0 0.0
2015-Aug-22 06:05N 43°34' E 007°05'0 0.0
2015-Aug-22 04:29N 43°34' E 007°05'0 0.0
2015-Aug-22 03:29N 43°34' E 007°05'0 0.0
2015-Aug-22 02:29N 43°34' E 007°05'0 0.0
2015-Aug-22 01:29N 43°34' E 007°05'0 0.0
2015-Aug-22 00:29N 43°34' E 007°05'0 0.0
2015-Aug-21 23:29N 43°34' E 007°05'0 0.0
2015-Aug-21 22:29N 43°34' E 007°05'0 0.0
2015-Aug-21 21:29N 43°34' E 007°05'0 0.0
2015-Aug-21 20:31N 43°34' E 007°05'0 0.0
2015-Aug-21 16:31N 43°34' E 007°05'0 0.0
2015-Aug-21 15:31N 43°34' E 007°05'0 0.0
2015-Aug-21 14:31N 43°34' E 007°05'0 0.0
2015-Aug-21 13:07N 43°34' E 007°05'0 0.0
2015-Aug-21 12:31N 43°34' E 007°05'0 0.0
2015-Aug-21 11:31N 43°34' E 007°05'0 0.0
2015-Aug-21 10:19N 43°34' E 007°05'0 0.0
2015-Aug-21 09:31N 43°34' E 007°05'0 0.0
2015-Aug-21 08:13N 43°34' E 007°05'0 0.0
2015-Aug-21 07:31N 43°34' E 007°05'0 0.0
2015-Aug-21 06:31N 43°34' E 007°05'0 0.0
2015-Aug-21 04:19N 43°34' E 007°05'0 0.0
2015-Aug-20 23:31N 43°34' E 007°05'0 0.0
2015-Aug-20 22:31N 43°34' E 007°05'0 0.0
2015-Aug-20 21:31N 43°34' E 007°05'0 0.0
2015-Aug-20 20:31N 43°34' E 007°05'0 0.0
2015-Aug-20 18:31N 43°34' E 007°05'0 0.0
2015-Aug-20 16:29N 43°34' E 007°05'0 0.0
2015-Aug-20 15:29N 43°34' E 007°05'0 0.0
2015-Aug-20 14:32N 43°34' E 007°05'0 0.0
2015-Aug-20 13:32N 43°34' E 007°05'0 0.0
2015-Aug-20 12:14N 43°34' E 007°05'0 0.0
2015-Aug-20 11:32N 43°34' E 007°05'0 0.0
2015-Aug-20 10:26N 43°34' E 007°05'0 0.0
2015-Aug-20 09:32N 43°34' E 007°05'0 0.0
2015-Aug-20 08:26N 43°34' E 007°05'0 0.0
2015-Aug-20 07:32N 43°34' E 007°05'0 0.0
2015-Aug-20 06:10N 43°34' E 007°05'0 0.0
2015-Aug-20 05:10N 43°34' E 007°05'0 0.0
2015-Aug-20 04:28N 43°34' E 007°05'0 0.0
2015-Aug-20 03:28N 43°34' E 007°05'0 0.0
2015-Aug-20 02:22N 43°34' E 007°05'0 0.0
2015-Aug-20 01:22N 43°34' E 007°05'0 0.0
2015-Aug-20 00:28N 43°34' E 007°05'0 0.0
2015-Aug-19 23:28N 43°34' E 007°05'0 0.0
2015-Aug-19 22:28N 43°34' E 007°05'0 0.0
2015-Aug-19 21:28N 43°34' E 007°05'0 0.0
2015-Aug-19 19:28N 43°34' E 007°05'0 0.0
2015-Aug-19 18:28N 43°34' E 007°05'0 0.0
2015-Aug-19 17:28N 43°34' E 007°05'0 0.0
2015-Aug-19 16:28N 43°34' E 007°05'0 0.0
2015-Aug-19 15:28N 43°34' E 007°05'0 0.0
2015-Aug-19 14:28N 43°34' E 007°05'0 0.0
2015-Aug-18 07:29N 43°34' E 007°05'0 0.0
2015-Aug-17 14:23N 43°34' E 007°05'0 0.0
2015-Aug-17 13:23N 43°34' E 007°05'0 0.0
2015-Aug-17 12:11N 43°34' E 007°05'0 0.0
2015-Aug-17 10:28N 43°34' E 007°05'  

Dump ship's entire track history